Lovell Field Chattanooga US
ICAO: KCHA
IATA: CHA
Category: Large
Scheduled Services: Yes

Elevation: 683 ft
TransAlt. 18000 ft.

Airport Communications:
CHATTANOOGA APP:119.2
CHATTANOOGA APP:122.5
ATIS:119.85
CLNC DEL:120.95
CTAF:118.3
CHATTANOOGA DEP:119.2
GND:121.7
ARNG OPS:41.5
CHATTANOOGA TWR:118.3
UNICOM:122.95

KCHA Zoom In..

Runways:

(A) RW 02 length 7400 ft width 150 ft
ILS 108.30 / hdg 19

(B) RW 15 length 5575 ft width 150 ft
---- / hdg 147

(C) RW 20 length 7400 ft width 150 ft
ILS 109.50 / hdg 199

(D) RW 33 length 5575 ft width 150 ft
---- / hdg 327

Location; KCHA
Day. 21 / Time. 05.53 Zulu
* Altimeter: 29.91
* Temperature: 26° c. 78.8°f.
* Wind from: 190° Speed 05 kn.
Dewpoint: 21° c.
Visibility: 10 Statute Miles.
Clouds: Overcast 3600 ft.

KCHA 210553Z 19005KT 10SM OVC036 26/21 A2991 RMK AO2 LTG DSNT N-E SLP117 T02610211 10300 20261 56013


Wind From 190°
Speed 05 kn.

 
 
jpsmedia.com for Web Design worldairports.se 2018   terms of use